createdAt,value
2019-05-30T00:02:10.275Z,79.4
2019-05-30T00:07:12.685Z,80.6
2019-05-30T00:12:15.131Z,80.9
2019-05-30T00:17:17.558Z,81.4
2019-05-30T00:22:20.034Z,82.6
2019-05-30T00:27:22.439Z,82.9
2019-05-30T00:32:24.978Z,83.5
2019-05-30T00:37:27.353Z,83.8
2019-05-30T00:42:29.758Z,84.3
2019-05-30T00:47:32.211Z,84.8
2019-05-30T00:52:34.631Z,84.7
2019-05-30T00:57:37.148Z,85.1
2019-05-30T01:02:39.609Z,85.8
2019-05-30T01:07:41.964Z,85.8
2019-05-30T01:12:44.412Z,86.2
2019-05-30T01:17:46.928Z,86.8
2019-05-30T01:22:49.300Z,87.4
2019-05-30T01:27:51.714Z,88.4
2019-05-30T01:32:54.161Z,88.3
2019-05-30T01:37:57.552Z,88.6
2019-05-30T01:42:59.904Z,88.4
2019-05-30T01:48:02.873Z,88.8
2019-05-30T01:53:04.578Z,89.2
2019-05-30T01:58:07.209Z,90
2019-05-30T02:03:09.470Z,89.5
2019-05-30T02:08:11.284Z,89.9
2019-05-30T02:13:13.735Z,90.2
2019-05-30T02:18:16.191Z,90
2019-05-30T02:23:18.614Z,90.1
2019-05-30T02:28:21.056Z,90.1
2019-05-30T02:33:23.461Z,90.2
2019-05-30T02:38:25.899Z,90.3
2019-05-30T02:43:28.342Z,90.8
2019-05-30T02:48:30.760Z,91.1
2019-05-30T02:53:33.210Z,90.9
2019-05-30T02:58:35.666Z,91.3
2019-05-30T03:03:38.073Z,91.1
2019-05-30T03:08:40.558Z,91.1
2019-05-30T03:13:42.954Z,91.2
2019-05-30T03:18:45.478Z,91.2
2019-05-30T03:23:47.829Z,91.3
2019-05-30T03:28:53.316Z,91.4
2019-05-30T03:33:52.748Z,91.8
2019-05-30T03:38:55.183Z,92.5
2019-05-30T03:43:57.610Z,92.7
2019-05-30T03:49:00.078Z,92.9
2019-05-30T03:54:04.771Z,93.6
2019-05-30T03:59:05.751Z,94.3
2019-05-30T04:04:09.125Z,94.7
2019-05-30T04:09:11.802Z,95.4
2019-05-30T04:19:15.591Z,96.4
2019-05-30T04:24:17.208Z,96.7
2019-05-30T04:29:19.554Z,97.2
2019-05-30T04:34:22.034Z,97.6
2019-05-30T04:39:24.473Z,97.9
2019-05-30T04:44:26.987Z,98.3
2019-05-30T04:49:29.366Z,98.7
2019-05-30T04:54:31.758Z,99.1
2019-05-30T04:59:34.197Z,99.4
2019-05-30T05:04:36.632Z,99.6
2019-05-30T05:09:39.074Z,99.9
2019-05-30T05:14:41.533Z,99.9
2019-05-30T05:19:44.411Z,99.9
2019-05-30T05:24:46.398Z,99.9
2019-05-30T05:29:48.833Z,99.9
2019-05-30T05:34:52.185Z,99.9
2019-05-30T05:39:53.764Z,99.9
2019-05-30T05:44:56.178Z,99.9
2019-05-30T05:49:58.598Z,99.9
2019-05-30T05:55:01.206Z,99.9
2019-05-30T06:00:03.528Z,99.9
2019-05-30T06:05:05.983Z,99.9
2019-05-30T06:10:08.390Z,99.9
2019-05-30T06:15:10.938Z,99.9
2019-05-30T06:25:15.704Z,99.9
2019-05-30T06:30:18.278Z,99.9
2019-05-30T06:35:21.366Z,99.9
2019-05-30T06:40:23.701Z,99.9
2019-05-30T06:45:26.691Z,99.9
2019-05-30T06:50:29.029Z,99.9
2019-05-30T06:55:31.396Z,99.9
2019-05-30T07:00:32.975Z,99.9
2019-05-30T07:05:35.882Z,99.9
2019-05-30T07:10:37.642Z,99.9
2019-05-30T07:15:40.075Z,99.9
2019-05-30T07:20:42.562Z,99.9
2019-05-30T07:25:44.985Z,99.9
2019-05-30T07:30:47.402Z,96.8
2019-05-30T07:35:49.865Z,93.3
2019-05-30T07:40:52.364Z,90.3
2019-05-30T07:45:58.102Z,87.2
2019-05-30T07:50:57.535Z,81
2019-05-30T07:55:59.664Z,79.2
2019-05-30T08:01:02.079Z,79.5
2019-05-30T08:06:04.545Z,78.8
2019-05-30T08:11:09.718Z,68.6
2019-05-30T08:16:09.362Z,67
2019-05-30T08:21:11.838Z,62.1
2019-05-30T08:26:14.454Z,64.4
2019-05-30T08:31:16.672Z,65.3
2019-05-30T08:36:19.129Z,61.4
2019-05-30T08:41:21.586Z,58.1
2019-05-30T08:46:23.994Z,56.3
2019-05-30T08:51:26.506Z,56.5
2019-05-30T08:56:30.184Z,57.1
2019-05-30T09:01:31.449Z,58.1
2019-05-30T09:06:33.759Z,57
2019-05-30T09:11:37.607Z,57.2
2019-05-30T09:16:38.649Z,55.3
2019-05-30T09:21:41.471Z,55
2019-05-30T09:26:46.737Z,53.8
2019-05-30T09:31:46.660Z,53.5
2019-05-30T09:36:49.086Z,53.4
2019-05-30T09:41:50.981Z,51.7
2019-05-30T09:46:53.324Z,51.9
2019-05-30T09:51:55.762Z,51.8
2019-05-30T09:56:58.164Z,51.7
2019-05-30T10:02:00.795Z,50.8
2019-05-30T10:07:03.104Z,51.8
2019-05-30T10:12:05.553Z,53.1
2019-05-30T10:17:07.978Z,49.9
2019-05-30T10:22:10.404Z,50.6
2019-05-30T10:27:12.911Z,50.6
2019-05-30T10:32:15.431Z,52.1
2019-05-30T10:37:17.702Z,52.6
2019-05-30T10:42:20.125Z,52.5
2019-05-30T10:47:22.680Z,52.8
2019-05-30T10:52:25.033Z,52.7
2019-05-30T10:57:27.534Z,50.7
2019-05-30T11:02:29.907Z,50.3
2019-05-30T11:07:32.353Z,46.8
2019-05-30T11:12:34.820Z,43.4
2019-05-30T11:17:37.286Z,47.4
2019-05-30T11:22:39.667Z,47.8
2019-05-30T11:27:42.113Z,47.2
2019-05-30T11:32:44.549Z,48.2
2019-05-30T11:37:47.021Z,48.1
2019-05-30T11:42:49.606Z,42.1
2019-05-30T11:47:51.855Z,44.9
2019-05-30T11:57:56.755Z,43.8
2019-05-30T12:08:01.654Z,45.8
2019-05-30T12:13:04.105Z,42.8
2019-05-30T12:18:06.663Z,38.2
2019-05-30T12:23:08.941Z,39.4
2019-05-30T12:28:11.407Z,36.8
2019-05-30T12:33:13.849Z,36.7
2019-05-30T12:38:16.263Z,37.5
2019-05-30T12:43:18.710Z,35.2
2019-05-30T12:48:21.244Z,32.5
2019-05-30T12:53:23.604Z,33.8
2019-05-30T12:58:26.040Z,33.1
2019-05-30T13:03:28.615Z,34.9
2019-05-30T13:08:30.923Z,33
2019-05-30T13:13:33.402Z,30.2
2019-05-30T13:18:35.818Z,32.1
2019-05-30T13:23:38.237Z,30
2019-05-30T13:28:40.711Z,31.2
2019-05-30T13:33:43.129Z,29.7
2019-05-30T13:38:45.578Z,31.8
2019-05-30T13:43:48.075Z,32.9
2019-05-30T13:48:50.477Z,31.7
2019-05-30T13:53:52.902Z,31.9
2019-05-30T13:58:55.392Z,30
2019-05-30T14:03:57.783Z,28.9
2019-05-30T14:09:00.376Z,29.8
2019-05-30T14:14:02.803Z,28.6
2019-05-30T14:19:05.379Z,29.8
2019-05-30T14:24:07.567Z,31.5
2019-05-30T14:29:10.138Z,31
2019-05-30T14:34:12.469Z,31.1
2019-05-30T14:39:14.888Z,30.4
2019-05-30T14:44:17.321Z,30.4
2019-05-30T14:49:19.754Z,30
2019-05-30T14:54:22.238Z,26.8
2019-05-30T14:59:24.661Z,26.1
2019-05-30T15:04:27.073Z,27.5
2019-05-30T15:09:29.512Z,25.9
2019-05-30T15:14:31.988Z,27.2
2019-05-30T15:19:34.415Z,25.5
2019-05-30T15:24:36.869Z,25.2
2019-05-30T15:29:39.331Z,25.2
2019-05-30T15:34:41.736Z,25.6
2019-05-30T15:39:44.469Z,25.5
2019-05-30T15:44:46.681Z,25.7
2019-05-30T15:49:52.100Z,26.3
2019-05-30T15:54:51.549Z,25.7
2019-05-30T15:59:53.966Z,26.2
2019-05-30T16:04:56.384Z,26.4
2019-05-30T16:09:58.853Z,26.4
2019-05-30T16:15:01.305Z,27
2019-05-30T16:20:03.737Z,28.5
2019-05-30T16:25:06.619Z,28.6
2019-05-30T16:30:09.043Z,28.5
2019-05-30T16:35:11.052Z,28.9
2019-05-30T16:40:14.454Z,30.1
2019-05-30T16:45:19.396Z,30.9
2019-05-30T16:50:19.025Z,31.6
2019-05-30T16:55:21.357Z,32.1
2019-05-30T17:00:23.247Z,31.8
2019-05-30T17:05:25.714Z,32.4
2019-05-30T17:10:32.497Z,32.7
2019-05-30T17:15:30.566Z,32.9
2019-05-30T17:20:33.013Z,33.1
2019-05-30T17:25:35.474Z,34
2019-05-30T17:30:37.893Z,34.5
2019-05-30T17:35:40.327Z,35
2019-05-30T17:40:45.092Z,34.8
2019-05-30T17:45:45.218Z,35.5
2019-05-30T17:50:47.654Z,35.8
2019-05-30T17:55:50.265Z,36.2
2019-05-30T18:00:52.551Z,36.7
2019-05-30T18:05:55.055Z,37.2
2019-05-30T18:10:57.422Z,37.7
2019-05-30T18:16:00.136Z,38.3
2019-05-30T18:21:02.315Z,38.5
2019-05-30T18:26:04.746Z,39.4
2019-05-30T18:31:07.238Z,40.1
2019-05-30T18:36:09.657Z,41
2019-05-30T18:41:15.742Z,41.6
2019-05-30T18:46:14.554Z,42.4
2019-05-30T18:51:17.026Z,43.2
2019-05-30T18:56:19.373Z,43.6
2019-05-30T19:01:21.839Z,44.3
2019-05-30T19:06:25.536Z,44.8
2019-05-30T19:11:30.736Z,45.1
2019-05-30T19:16:30.705Z,45.5
2019-05-30T19:21:32.132Z,45.7
2019-05-30T19:26:34.687Z,46
2019-05-30T19:36:38.931Z,46.7
2019-05-30T19:41:53.977Z,47
2019-05-30T19:46:44.021Z,47.6
2019-05-30T19:51:46.233Z,47.3
2019-05-30T19:56:48.668Z,47.2
2019-05-30T20:01:51.199Z,47.5
2019-05-30T20:06:53.548Z,47.4
2019-05-30T20:12:03.017Z,47.3
2019-05-30T20:16:58.426Z,47.5
2019-05-30T20:22:00.852Z,47.6
2019-05-30T20:27:03.329Z,47.3
2019-05-30T20:32:05.889Z,47.2
2019-05-30T20:37:08.250Z,47.3
2019-05-30T20:42:19.040Z,47.8
2019-05-30T20:47:13.102Z,48.2
2019-05-30T20:52:15.533Z,48.5
2019-05-30T20:57:17.950Z,48.9
2019-05-30T21:02:20.401Z,49.3
2019-05-30T21:07:22.988Z,49.6
2019-05-30T21:12:36.714Z,49.8
2019-05-30T21:17:27.716Z,50
2019-05-30T21:22:30.168Z,50.2
2019-05-30T21:27:32.604Z,50.5
2019-05-30T21:32:35.105Z,50.9
2019-05-30T21:37:37.746Z,51.3
2019-05-30T21:42:55.268Z,51.5
2019-05-30T21:47:42.757Z,52.1
2019-05-30T21:52:46.237Z,52.9
2019-05-30T21:57:48.112Z,53.6
2019-05-30T22:02:50.751Z,54.7
2019-05-30T22:07:52.190Z,55.2
2019-05-30T22:13:07.085Z,55.7
2019-05-30T22:17:57.010Z,55.8
2019-05-30T22:22:59.441Z,56.4
2019-05-30T22:28:01.874Z,56.9
2019-05-30T22:33:04.394Z,57.4
2019-05-30T22:38:06.786Z,58.2
2019-05-30T22:43:22.566Z,59.1
2019-05-30T22:48:11.706Z,59.9
2019-05-30T22:53:14.140Z,61.1
2019-05-30T22:58:16.520Z,61.9
2019-05-30T23:03:18.972Z,63
2019-05-30T23:08:21.432Z,64.1
2019-05-30T23:13:23.872Z,64.7
2019-05-30T23:18:26.352Z,65.1
2019-05-30T23:23:28.735Z,65.4
2019-05-30T23:28:31.180Z,66
2019-05-30T23:33:33.640Z,66.5
2019-05-30T23:38:36.151Z,67.8
2019-05-30T23:43:38.538Z,68.5
2019-05-30T23:48:40.982Z,69.9
2019-05-30T23:53:43.374Z,71.2
2019-05-30T23:58:45.835Z,72.7
